PWSweather.com
Personal Weather Stations
Station Observations
DEKREUPEL
Wsv De Kreupel, AndijkNL 1619 JV

Wsv De KreupelAndijkNL 1619 JV

Lat: 52.7417364, Lon: 5.1809356

Elevation: 33

Station Type: Rainwise MKiii LR

High Low Average
Temperature 52.1°F11.2°C 43.3°F6.3°C 47.8°F8.8°C
Dew Point 79.0°F26.1°C 63.9°F17.7°C 74.1°F23.4°C
Winds 0.9 mph 1.4 kmh Calm Calm Calm WNWCalm WNW
Wind Gusts 7.4 mph11.9 kmh -- --
Humidity - - -
Pressure 29.99 in1015.6 mb 29.82 in1009.8 mb -
Precipitation 0.13 in3.3 mm - -
Hour Temp Dew Point Humidity Winds Wind Gusts Pressure Precip Precip Rate Daily Precip Total
12:04 AM 47.0°F8.3°C 73.3°F22.9°C - Calm Calm -- 29.99 in1015.6 mb 0.00 in0.0 mm 0.00 in0.0 mm 0.00 in0.0 mm
12:09 AM 47.7°F8.7°C 74.1°F23.4°C - Calm Calm -- 29.99 in1015.6 mb 0.00 in0.0 mm 0.00 in0.0 mm 0.00 in0.0 mm
12:14 AM 48.3°F9.1°C 74.8°F23.8°C - Calm Calm -- 29.99 in1015.6 mb 0.00 in0.0 mm 0.00 in0.0 mm 0.00 in0.0 mm
12:20 AM 48.7°F9.3°C 75.2°F24.0°C - Calm Calm -- 29.99 in1015.6 mb 0.00 in0.0 mm 0.00 in0.0 mm 0.00 in0.0 mm
12:24 AM 49.0°F9.4°C 75.6°F24.2°C - Calm Calm -- 29.99 in1015.6 mb 0.00 in0.0 mm 0.00 in0.0 mm 0.00 in0.0 mm
12:29 AM 49.0°F9.4°C 75.6°F24.2°C - Calm Calm -- 29.99 in1015.6 mb 0.00 in0.0 mm 0.00 in0.0 mm 0.00 in0.0 mm
12:34 AM 49.0°F9.4°C 75.6°F24.2°C - Calm Calm -- 29.98 in1015.2 mb 0.00 in0.0 mm 0.00 in0.0 mm 0.00 in0.0 mm
12:39 AM 48.7°F9.3°C 75.2°F24.0°C - Calm Calm -- 29.98 in1015.2 mb 0.00 in0.0 mm 0.00 in0.0 mm 0.00 in0.0 mm
12:44 AM 48.5°F9.2°C 75.0°F23.9°C - Calm Calm -- 29.98 in1015.2 mb 0.00 in0.0 mm 0.00 in0.0 mm 0.00 in0.0 mm
12:49 AM 48.3°F9.1°C 74.7°F23.7°C - Calm Calm -- 29.98 in1015.2 mb 0.00 in0.0 mm 0.00 in0.0 mm 0.00 in0.0 mm
12:54 AM 48.2°F9.0°C 74.7°F23.7°C - Calm Calm -- 29.99 in1015.6 mb 0.00 in0.0 mm 0.00 in0.0 mm 0.00 in0.0 mm
12:59 AM 48.2°F9.0°C 74.7°F23.7°C - Calm Calm -- 29.99 in1015.6 mb 0.00 in0.0 mm 0.00 in0.0 mm 0.00 in0.0 mm
01:04 AM 48.1°F8.9°C 74.6°F23.7°C - Calm Calm -- 29.98 in1015.2 mb 0.00 in0.0 mm 0.00 in0.0 mm 0.00 in0.0 mm
01:09 AM 48.0°F8.9°C 74.3°F23.5°C - Calm Calm -- 29.98 in1015.2 mb 0.00 in0.0 mm 0.00 in0.0 mm 0.00 in0.0 mm
01:14 AM 47.7°F8.7°C 74.1°F23.4°C - Calm Calm -- 29.98 in1015.2 mb 0.00 in0.0 mm 0.00 in0.0 mm 0.00 in0.0 mm
01:19 AM 47.4°F8.6°C 73.8°F23.2°C - Calm Calm -- 29.98 in1015.2 mb 0.00 in0.0 mm 0.00 in0.0 mm 0.00 in0.0 mm
01:24 AM 47.2°F8.4°C 73.5°F23.1°C - Calm Calm -- 29.98 in1015.2 mb 0.00 in0.0 mm 0.00 in0.0 mm 0.00 in0.0 mm
01:29 AM 47.0°F8.3°C 73.3°F22.9°C - Calm Calm -- 29.98 in1015.2 mb 0.00 in0.0 mm 0.00 in0.0 mm 0.00 in0.0 mm
01:34 AM 47.1°F8.4°C 63.9°F17.7°C - Calm Calm -- 29.98 in1015.2 mb 0.00 in0.0 mm 0.00 in0.0 mm 0.00 in0.0 mm
01:39 AM 47.4°F8.6°C 73.7°F23.2°C - Calm Calm -- 29.97 in1014.9 mb 0.00 in0.0 mm 0.00 in0.0 mm 0.00 in0.0 mm
01:45 AM 47.6°F8.7°C 73.9°F23.3°C - Calm Calm -- 29.97 in1014.9 mb 0.00 in0.0 mm 0.00 in0.0 mm 0.00 in0.0 mm
01:49 AM 47.6°F8.7°C 74.0°F23.3°C - Calm Calm -- 29.97 in1014.9 mb 0.00 in0.0 mm 0.00 in0.0 mm 0.00 in0.0 mm
01:54 AM 47.3°F8.5°C 73.5°F23.1°C - Calm Calm -- 29.97 in1014.9 mb 0.00 in0.0 mm 0.00 in0.0 mm 0.00 in0.0 mm
01:59 AM 47.3°F8.5°C 73.7°F23.2°C - Calm Calm -- 29.97 in1014.9 mb 0.00 in0.0 mm 0.00 in0.0 mm 0.00 in0.0 mm
02:04 AM 47.6°F8.7°C 73.9°F23.3°C - Calm Calm -- 29.97 in1014.9 mb 0.00 in0.0 mm 0.00 in0.0 mm 0.00 in0.0 mm
02:09 AM 47.7°F8.7°C 74.1°F23.4°C - Calm Calm -- 29.97 in1014.9 mb 0.00 in0.0 mm 0.00 in0.0 mm 0.00 in0.0 mm
02:14 AM 48.0°F8.9°C 74.4°F23.6°C - Calm Calm -- 29.97 in1014.9 mb 0.00 in0.0 mm 0.00 in0.0 mm 0.00 in0.0 mm
02:19 AM 48.2°F9.0°C 74.6°F23.7°C - Calm Calm -- 29.97 in1014.9 mb 0.00 in0.0 mm 0.00 in0.0 mm 0.00 in0.0 mm
02:24 AM 48.3°F9.1°C 74.7°F23.7°C - Calm Calm -- 29.97 in1014.9 mb 0.00 in0.0 mm 0.00 in0.0 mm 0.00 in0.0 mm
02:29 AM 48.5°F9.2°C 75.0°F23.9°C - Calm Calm -- 29.97 in1014.9 mb 0.00 in0.0 mm 0.00 in0.0 mm 0.00 in0.0 mm
02:34 AM 48.3°F9.1°C 74.8°F23.8°C - Calm Calm -- 29.97 in1014.9 mb 0.00 in0.0 mm 0.00 in0.0 mm 0.00 in0.0 mm
02:39 AM 48.2°F9.0°C 74.7°F23.7°C - Calm Calm -- 29.96 in1014.6 mb 0.00 in0.0 mm 0.00 in0.0 mm 0.00 in0.0 mm
02:44 AM 48.2°F9.0°C 74.6°F23.7°C - Calm Calm -- 29.97 in1014.9 mb 0.00 in0.0 mm 0.00 in0.0 mm 0.00 in0.0 mm
02:49 AM 48.1°F8.9°C 74.6°F23.7°C - Calm Calm -- 29.96 in1014.6 mb 0.00 in0.0 mm 0.00 in0.0 mm 0.00 in0.0 mm
02:54 AM 47.8°F8.8°C 74.2°F23.4°C - Calm Calm -- 29.96 in1014.6 mb 0.00 in0.0 mm 0.00 in0.0 mm 0.00 in0.0 mm
03:00 AM 47.5°F8.6°C 73.9°F23.3°C - Calm Calm -- 29.96 in1014.6 mb 0.00 in0.0 mm 0.00 in0.0 mm 0.00 in0.0 mm
03:04 AM 47.3°F8.5°C 73.5°F23.1°C - Calm Calm -- 29.95 in1014.2 mb 0.00 in0.0 mm 0.00 in0.0 mm 0.00 in0.0 mm
03:09 AM 47.2°F8.4°C 73.4°F23.0°C - Calm Calm -- 29.95 in1014.2 mb 0.00 in0.0 mm 0.00 in0.0 mm 0.00 in0.0 mm
03:15 AM 47.4°F8.6°C 73.7°F23.2°C - Calm Calm -- 29.94 in1013.9 mb 0.00 in0.0 mm 0.00 in0.0 mm 0.00 in0.0 mm
03:19 AM 47.6°F8.7°C 74.0°F23.3°C - Calm Calm -- 29.94 in1013.9 mb 0.00 in0.0 mm 0.00 in0.0 mm 0.00 in0.0 mm
03:24 AM 47.6°F8.7°C 73.9°F23.3°C - Calm Calm -- 29.94 in1013.9 mb 0.00 in0.0 mm 0.00 in0.0 mm 0.00 in0.0 mm
03:29 AM 47.5°F8.6°C 73.9°F23.3°C - Calm Calm -- 29.94 in1013.9 mb 0.00 in0.0 mm 0.00 in0.0 mm 0.00 in0.0 mm
03:34 AM 47.5°F8.6°C 73.9°F23.3°C - Calm Calm -- 29.94 in1013.9 mb 0.00 in0.0 mm 0.00 in0.0 mm 0.00 in0.0 mm
03:39 AM 47.6°F8.7°C 74.0°F23.3°C - Calm Calm -- 29.94 in1013.9 mb 0.00 in0.0 mm 0.00 in0.0 mm 0.00 in0.0 mm
03:44 AM 47.8°F8.8°C 74.1°F23.4°C - Calm Calm -- 29.93 in1013.5 mb 0.00 in0.0 mm 0.00 in0.0 mm 0.00 in0.0 mm
03:49 AM 47.9°F8.8°C 74.2°F23.4°C - Calm Calm -- 29.93 in1013.5 mb 0.00 in0.0 mm 0.00 in0.0 mm 0.00 in0.0 mm
03:54 AM 47.7°F8.7°C 74.1°F23.4°C - Calm Calm -- 29.93 in1013.5 mb 0.00 in0.0 mm 0.00 in0.0 mm 0.00 in0.0 mm
03:59 AM 47.8°F8.8°C 74.1°F23.4°C - Calm Calm -- 29.93 in1013.5 mb 0.00 in0.0 mm 0.00 in0.0 mm 0.00 in0.0 mm
04:04 AM 47.8°F8.8°C 74.1°F23.4°C - Calm Calm -- 29.93 in1013.5 mb 0.00 in0.0 mm 0.00 in0.0 mm 0.00 in0.0 mm
04:09 AM 47.6°F8.7°C 74.0°F23.3°C - Calm Calm -- 29.93 in1013.5 mb 0.00 in0.0 mm 0.00 in0.0 mm 0.00 in0.0 mm
04:14 AM 47.5°F8.6°C 73.9°F23.3°C - Calm Calm -- 29.93 in1013.5 mb 0.00 in0.0 mm 0.00 in0.0 mm 0.00 in0.0 mm
04:19 AM 47.2°F8.4°C 73.4°F23.0°C - Calm Calm -- 29.93 in1013.5 mb 0.00 in0.0 mm 0.00 in0.0 mm 0.00 in0.0 mm
04:24 AM 47.0°F8.3°C 73.3°F22.9°C - Calm Calm -- 29.93 in1013.5 mb 0.00 in0.0 mm 0.00 in0.0 mm 0.01 in0.3 mm
04:29 AM 48.2°F9.0°C 74.6°F23.7°C - Calm Calm -- 29.93 in1013.5 mb 0.00 in0.0 mm 0.00 in0.0 mm 0.02 in0.5 mm
04:34 AM 48.5°F9.2°C 75.0°F23.9°C - Calm Calm -- 29.92 in1013.2 mb 0.00 in0.0 mm 0.00 in0.0 mm 0.02 in0.5 mm
04:40 AM 47.5°F8.6°C 73.9°F23.3°C - Calm Calm -- 29.92 in1013.2 mb 0.00 in0.0 mm 0.00 in0.0 mm 0.03 in0.8 mm
04:44 AM 47.2°F8.4°C 73.5°F23.1°C - Calm Calm -- 29.92 in1013.2 mb 0.00 in0.0 mm 0.00 in0.0 mm 0.03 in0.8 mm
04:49 AM 47.5°F8.6°C 73.8°F23.2°C - Calm Calm -- 29.92 in1013.2 mb 0.00 in0.0 mm 0.00 in0.0 mm 0.03 in0.8 mm
04:54 AM 47.6°F8.7°C 74.0°F23.3°C - Calm Calm -- 29.92 in1013.2 mb 0.00 in0.0 mm 0.00 in0.0 mm 0.03 in0.8 mm
04:59 AM 47.4°F8.6°C 73.8°F23.2°C - Calm Calm -- 29.92 in1013.2 mb 0.00 in0.0 mm 0.00 in0.0 mm 0.03 in0.8 mm
05:04 AM 47.1°F8.4°C 73.3°F22.9°C - Calm Calm -- 29.92 in1013.2 mb 0.00 in0.0 mm 0.00 in0.0 mm 0.03 in0.8 mm
05:10 AM 46.6°F8.1°C 72.8°F22.7°C - Calm Calm -- 29.92 in1013.2 mb 0.00 in0.0 mm 0.00 in0.0 mm 0.03 in0.8 mm
05:14 AM 46.7°F8.2°C 72.9°F22.7°C - Calm Calm -- 29.91 in1012.9 mb 0.00 in0.0 mm 0.00 in0.0 mm 0.03 in0.8 mm
05:19 AM 47.0°F8.3°C 73.2°F22.9°C - Calm Calm -- 29.91 in1012.9 mb 0.00 in0.0 mm 0.00 in0.0 mm 0.03 in0.8 mm
05:24 AM 47.1°F8.4°C 73.3°F22.9°C - Calm Calm -- 29.91 in1012.9 mb 0.00 in0.0 mm 0.00 in0.0 mm 0.03 in0.8 mm
05:29 AM 47.2°F8.4°C 73.5°F23.1°C - Calm Calm -- 29.90 in1012.5 mb 0.00 in0.0 mm 0.00 in0.0 mm 0.03 in0.8 mm
05:34 AM 47.2°F8.4°C 73.5°F23.1°C - Calm Calm -- 29.90 in1012.5 mb 0.00 in0.0 mm 0.00 in0.0 mm 0.03 in0.8 mm
05:39 AM 47.2°F8.4°C 73.5°F23.1°C - Calm Calm -- 29.90 in1012.5 mb 0.00 in0.0 mm 0.00 in0.0 mm 0.03 in0.8 mm
05:44 AM 47.2°F8.4°C 73.5°F23.1°C - Calm Calm -- 29.90 in1012.5 mb 0.00 in0.0 mm 0.00 in0.0 mm 0.03 in0.8 mm
05:49 AM 47.2°F8.4°C 73.5°F23.1°C - Calm Calm -- 29.90 in1012.5 mb 0.00 in0.0 mm 0.00 in0.0 mm 0.03 in0.8 mm
05:54 AM 47.2°F8.4°C 73.5°F23.1°C - Calm Calm -- 29.90 in1012.5 mb 0.00 in0.0 mm 0.00 in0.0 mm 0.03 in0.8 mm
05:59 AM 47.2°F8.4°C 73.5°F23.1°C - Calm Calm -- 29.89 in1012.2 mb 0.00 in0.0 mm 0.00 in0.0 mm 0.03 in0.8 mm
06:04 AM 47.4°F8.6°C 73.7°F23.2°C - Calm Calm -- 29.89 in1012.2 mb 0.00 in0.0 mm 0.00 in0.0 mm 0.03 in0.8 mm
06:09 AM 47.7°F8.7°C 74.0°F23.3°C - Calm Calm -- 29.89 in1012.2 mb 0.00 in0.0 mm 0.00 in0.0 mm 0.03 in0.8 mm
06:14 AM 48.0°F8.9°C 74.3°F23.5°C - Calm Calm -- 29.89 in1012.2 mb 0.00 in0.0 mm 0.00 in0.0 mm 0.03 in0.8 mm
06:20 AM 48.1°F8.9°C 74.6°F23.7°C - Calm Calm -- 29.89 in1012.2 mb 0.00 in0.0 mm 0.00 in0.0 mm 0.03 in0.8 mm
06:24 AM 48.2°F9.0°C 74.7°F23.7°C - Calm Calm -- 29.89 in1012.2 mb 0.00 in0.0 mm 0.00 in0.0 mm 0.03 in0.8 mm
06:29 AM 48.2°F9.0°C 74.7°F23.7°C - Calm Calm -- 29.89 in1012.2 mb 0.00 in0.0 mm 0.00 in0.0 mm 0.03 in0.8 mm
06:34 AM 48.2°F9.0°C 74.7°F23.7°C - Calm Calm -- 29.89 in1012.2 mb 0.00 in0.0 mm 0.00 in0.0 mm 0.03 in0.8 mm
06:40 AM 48.2°F9.0°C 74.7°F23.7°C - Calm Calm -- 29.89 in1012.2 mb 0.00 in0.0 mm 0.00 in0.0 mm 0.03 in0.8 mm
06:44 AM 48.3°F9.1°C 74.7°F23.7°C - Calm Calm -- 29.89 in1012.2 mb 0.00 in0.0 mm 0.00 in0.0 mm 0.03 in0.8 mm
06:49 AM 48.6°F9.2°C 75.1°F23.9°C - Calm Calm -- 29.88 in1011.9 mb 0.00 in0.0 mm 0.00 in0.0 mm 0.03 in0.8 mm
06:54 AM 48.6°F9.2°C 75.1°F23.9°C - Calm Calm -- 29.88 in1011.9 mb 0.00 in0.0 mm 0.00 in0.0 mm 0.03 in0.8 mm
06:59 AM 48.6°F9.2°C 75.1°F23.9°C - Calm Calm -- 29.88 in1011.9 mb 0.00 in0.0 mm 0.00 in0.0 mm 0.03 in0.8 mm
07:05 AM 48.5°F9.2°C 75.0°F23.9°C - Calm Calm -- 29.88 in1011.9 mb 0.00 in0.0 mm 0.00 in0.0 mm 0.03 in0.8 mm
07:09 AM 48.5°F9.2°C 75.0°F23.9°C - Calm Calm -- 29.88 in1011.9 mb 0.00 in0.0 mm 0.00 in0.0 mm 0.03 in0.8 mm
07:14 AM 48.5°F9.2°C 75.0°F23.9°C - Calm Calm -- 29.87 in1011.5 mb 0.00 in0.0 mm 0.00 in0.0 mm 0.03 in0.8 mm
07:19 AM 48.8°F9.3°C 75.3°F24.1°C - Calm Calm -- 29.87 in1011.5 mb 0.00 in0.0 mm 0.00 in0.0 mm 0.03 in0.8 mm
07:24 AM 49.1°F9.5°C 75.7°F24.3°C - Calm Calm -- 29.87 in1011.5 mb 0.00 in0.0 mm 0.00 in0.0 mm 0.03 in0.8 mm
07:29 AM 49.1°F9.5°C 75.7°F24.3°C - Calm Calm -- 29.87 in1011.5 mb 0.00 in0.0 mm 0.00 in0.0 mm 0.03 in0.8 mm
07:34 AM 49.0°F9.4°C 75.6°F24.2°C - Calm Calm -- 29.86 in1011.2 mb 0.00 in0.0 mm 0.00 in0.0 mm 0.03 in0.8 mm
07:39 AM 48.7°F9.3°C 75.2°F24.0°C - Calm Calm -- 29.87 in1011.5 mb 0.00 in0.0 mm 0.00 in0.0 mm 0.03 in0.8 mm
07:44 AM 48.5°F9.2°C 75.0°F23.9°C - Calm Calm -- 29.87 in1011.5 mb 0.00 in0.0 mm 0.00 in0.0 mm 0.03 in0.8 mm
07:49 AM 48.2°F9.0°C 74.7°F23.7°C - Calm Calm -- 29.86 in1011.2 mb 0.00 in0.0 mm 0.00 in0.0 mm 0.03 in0.8 mm
07:54 AM 48.1°F8.9°C 74.6°F23.7°C - Calm Calm -- 29.87 in1011.5 mb 0.00 in0.0 mm 0.00 in0.0 mm 0.03 in0.8 mm
07:59 AM 47.8°F8.8°C 74.2°F23.4°C - Calm Calm -- 29.87 in1011.5 mb 0.00 in0.0 mm 0.00 in0.0 mm 0.03 in0.8 mm
08:04 AM 47.7°F8.7°C 74.1°F23.4°C - Calm Calm -- 29.87 in1011.5 mb 0.00 in0.0 mm 0.00 in0.0 mm 0.03 in0.8 mm
08:09 AM 47.5°F8.6°C 73.9°F23.3°C - Calm Calm -- 29.87 in1011.5 mb 0.00 in0.0 mm 0.00 in0.0 mm 0.03 in0.8 mm
08:14 AM 47.5°F8.6°C 73.8°F23.2°C - Calm Calm -- 29.87 in1011.5 mb 0.00 in0.0 mm 0.00 in0.0 mm 0.03 in0.8 mm
08:19 AM 47.6°F8.7°C 73.9°F23.3°C - Calm Calm -- 29.87 in1011.5 mb 0.00 in0.0 mm 0.00 in0.0 mm 0.03 in0.8 mm
08:24 AM 47.7°F8.7°C 74.0°F23.3°C - Calm Calm -- 29.86 in1011.2 mb 0.00 in0.0 mm 0.00 in0.0 mm 0.03 in0.8 mm
08:29 AM 47.8°F8.8°C 74.2°F23.4°C - Calm Calm -- 29.86 in1011.2 mb 0.00 in0.0 mm 0.00 in0.0 mm 0.03 in0.8 mm
08:34 AM 48.0°F8.9°C 74.3°F23.5°C - Calm Calm -- 29.86 in1011.2 mb 0.00 in0.0 mm 0.00 in0.0 mm 0.03 in0.8 mm
08:39 AM 48.0°F8.9°C 74.4°F23.6°C - Calm Calm -- 29.86 in1011.2 mb 0.00 in0.0 mm 0.00 in0.0 mm 0.03 in0.8 mm
08:44 AM 48.1°F8.9°C 74.6°F23.7°C - Calm Calm -- 29.86 in1011.2 mb 0.00 in0.0 mm 0.00 in0.0 mm 0.03 in0.8 mm
08:49 AM 48.1°F8.9°C 74.6°F23.7°C - Calm Calm -- 29.86 in1011.2 mb 0.00 in0.0 mm 0.00 in0.0 mm 0.03 in0.8 mm
08:54 AM 48.1°F8.9°C 74.6°F23.7°C - Calm Calm -- 29.85 in1010.8 mb 0.00 in0.0 mm 0.00 in0.0 mm 0.03 in0.8 mm
08:59 AM 48.1°F8.9°C 74.4°F23.6°C - Calm Calm -- 29.85 in1010.8 mb 0.00 in0.0 mm 0.00 in0.0 mm 0.03 in0.8 mm
09:05 AM 48.2°F9.0°C 74.7°F23.7°C - Calm Calm -- 29.85 in1010.8 mb 0.00 in0.0 mm 0.00 in0.0 mm 0.03 in0.8 mm
09:09 AM 48.2°F9.0°C 74.7°F23.7°C - Calm Calm -- 29.85 in1010.8 mb 0.00 in0.0 mm 0.00 in0.0 mm 0.03 in0.8 mm
09:14 AM 48.2°F9.0°C 74.6°F23.7°C - Calm Calm -- 29.85 in1010.8 mb 0.00 in0.0 mm 0.00 in0.0 mm 0.03 in0.8 mm
09:19 AM 48.2°F9.0°C 74.7°F23.7°C - Calm Calm -- 29.85 in1010.8 mb 0.00 in0.0 mm 0.00 in0.0 mm 0.03 in0.8 mm
09:24 AM 48.2°F9.0°C 74.7°F23.7°C - Calm Calm -- 29.85 in1010.8 mb 0.00 in0.0 mm 0.00 in0.0 mm 0.03 in0.8 mm
09:30 AM 48.3°F9.1°C 74.8°F23.8°C - Calm Calm -- 29.85 in1010.8 mb 0.00 in0.0 mm 0.00 in0.0 mm 0.03 in0.8 mm
09:34 AM 48.3°F9.1°C 74.8°F23.8°C - Calm Calm -- 29.85 in1010.8 mb 0.00 in0.0 mm 0.00 in0.0 mm 0.03 in0.8 mm
09:39 AM 48.3°F9.1°C 74.7°F23.7°C - Calm Calm -- 29.85 in1010.8 mb 0.00 in0.0 mm 0.00 in0.0 mm 0.03 in0.8 mm
09:44 AM 48.3°F9.1°C 74.8°F23.8°C - Calm Calm -- 29.85 in1010.8 mb 0.00 in0.0 mm 0.00 in0.0 mm 0.03 in0.8 mm
09:49 AM 48.3°F9.1°C 74.8°F23.8°C - Calm Calm -- 29.85 in1010.8 mb 0.00 in0.0 mm 0.00 in0.0 mm 0.03 in0.8 mm
09:54 AM 48.3°F9.1°C 74.8°F23.8°C - Calm Calm -- 29.85 in1010.8 mb 0.00 in0.0 mm 0.00 in0.0 mm 0.03 in0.8 mm
09:59 AM 48.6°F9.2°C 75.1°F23.9°C - Calm Calm -- 29.84 in1010.5 mb 0.00 in0.0 mm 0.00 in0.0 mm 0.03 in0.8 mm
10:04 AM 48.8°F9.3°C 75.2°F24.0°C - Calm Calm -- 29.84 in1010.5 mb 0.00 in0.0 mm 0.00 in0.0 mm 0.03 in0.8 mm
10:09 AM 49.0°F9.4°C 75.6°F24.2°C - Calm Calm -- 29.84 in1010.5 mb 0.00 in0.0 mm 0.00 in0.0 mm 0.03 in0.8 mm
10:14 AM 49.2°F9.6°C 75.8°F24.3°C - Calm Calm -- 29.84 in1010.5 mb 0.00 in0.0 mm 0.00 in0.0 mm 0.03 in0.8 mm
10:19 AM 49.5°F9.7°C 76.0°F24.4°C - Calm Calm -- 29.84 in1010.5 mb 0.00 in0.0 mm 0.00 in0.0 mm 0.03 in0.8 mm
10:24 AM 49.7°F9.8°C 76.2°F24.6°C - Calm Calm -- 29.84 in1010.5 mb 0.00 in0.0 mm 0.00 in0.0 mm 0.03 in0.8 mm
10:29 AM 49.7°F9.8°C 76.4°F24.7°C - Calm Calm -- 29.84 in1010.5 mb 0.00 in0.0 mm 0.00 in0.0 mm 0.03 in0.8 mm
10:34 AM 50.2°F10.1°C 76.9°F24.9°C - Calm Calm -- 29.84 in1010.5 mb 0.00 in0.0 mm 0.00 in0.0 mm 0.04 in1.0 mm
10:39 AM 50.6°F10.3°C 77.4°F25.2°C - Calm Calm -- 29.84 in1010.5 mb 0.00 in0.0 mm 0.00 in0.0 mm 0.05 in1.3 mm
10:44 AM 49.4°F9.7°C 75.9°F24.4°C - Calm Calm -- 29.84 in1010.5 mb 0.00 in0.0 mm 0.00 in0.0 mm 0.07 in1.8 mm
10:49 AM 48.2°F9.0°C 74.7°F23.7°C - Calm Calm -- 29.84 in1010.5 mb 0.00 in0.0 mm 0.00 in0.0 mm 0.07 in1.8 mm
10:54 AM 48.2°F9.0°C 74.7°F23.7°C - Calm Calm -- 29.84 in1010.5 mb 0.00 in0.0 mm 0.00 in0.0 mm 0.07 in1.8 mm
10:59 AM 48.3°F9.1°C 74.7°F23.7°C - Calm Calm -- 29.84 in1010.5 mb 0.00 in0.0 mm 0.00 in0.0 mm 0.07 in1.8 mm
11:04 AM 48.3°F9.1°C 74.8°F23.8°C - Calm Calm -- 29.83 in1010.2 mb 0.00 in0.0 mm 0.00 in0.0 mm 0.08 in2.0 mm
11:09 AM 48.6°F9.2°C 75.1°F23.9°C - Calm Calm -- 29.83 in1010.2 mb 0.00 in0.0 mm 0.00 in0.0 mm 0.08 in2.0 mm
11:14 AM 48.6°F9.2°C 75.1°F23.9°C - Calm Calm -- 29.83 in1010.2 mb 0.00 in0.0 mm 0.00 in0.0 mm 0.09 in2.3 mm
11:19 AM 48.5°F9.2°C 75.0°F23.9°C - Calm Calm -- 29.83 in1010.2 mb 0.00 in0.0 mm 0.00 in0.0 mm 0.11 in2.8 mm
11:24 AM 48.1°F8.9°C 74.6°F23.7°C - Calm Calm -- 29.83 in1010.2 mb 0.00 in0.0 mm 0.00 in0.0 mm 0.11 in2.8 mm
11:30 AM 48.0°F8.9°C 74.4°F23.6°C - Calm Calm -- 29.83 in1010.2 mb 0.00 in0.0 mm 0.00 in0.0 mm 0.11 in2.8 mm
11:34 AM 48.1°F8.9°C 74.6°F23.7°C - Calm Calm -- 29.83 in1010.2 mb 0.00 in0.0 mm 0.00 in0.0 mm 0.11 in2.8 mm
11:39 AM 48.2°F9.0°C 74.7°F23.7°C - Calm Calm -- 29.83 in1010.2 mb 0.00 in0.0 mm 0.00 in0.0 mm 0.11 in2.8 mm
11:44 AM 48.5°F9.2°C 75.0°F23.9°C - Calm Calm -- 29.83 in1010.2 mb 0.00 in0.0 mm 0.00 in0.0 mm 0.11 in2.8 mm
11:49 AM 48.8°F9.3°C 75.3°F24.1°C - Calm Calm -- 29.84 in1010.5 mb 0.00 in0.0 mm 0.00 in0.0 mm 0.11 in2.8 mm
11:54 AM 49.0°F9.4°C 75.6°F24.2°C - Calm Calm -- 29.83 in1010.2 mb 0.00 in0.0 mm 0.00 in0.0 mm 0.11 in2.8 mm
11:59 AM 49.1°F9.5°C 75.7°F24.3°C - Calm Calm -- 29.83 in1010.2 mb 0.00 in0.0 mm 0.00 in0.0 mm 0.11 in2.8 mm
12:04 PM 49.2°F9.6°C 75.8°F24.3°C - Calm Calm -- 29.84 in1010.5 mb 0.00 in0.0 mm 0.00 in0.0 mm 0.11 in2.8 mm
12:09 PM 49.2°F9.6°C 75.8°F24.3°C - Calm Calm -- 29.84 in1010.5 mb 0.00 in0.0 mm 0.00 in0.0 mm 0.11 in2.8 mm
12:14 PM 49.1°F9.5°C 75.7°F24.3°C - Calm Calm -- 29.83 in1010.2 mb 0.00 in0.0 mm 0.00 in0.0 mm 0.11 in2.8 mm
12:19 PM 48.8°F9.3°C 75.3°F24.1°C - Calm Calm -- 29.84 in1010.5 mb 0.00 in0.0 mm 0.00 in0.0 mm 0.11 in2.8 mm
12:25 PM 48.8°F9.3°C 75.3°F24.1°C - Calm Calm -- 29.83 in1010.2 mb 0.00 in0.0 mm 0.00 in0.0 mm 0.11 in2.8 mm
12:29 PM 48.7°F9.3°C 75.1°F23.9°C - Calm Calm -- 29.83 in1010.2 mb 0.00 in0.0 mm 0.00 in0.0 mm 0.11 in2.8 mm
12:34 PM 48.8°F9.3°C 75.3°F24.1°C - Calm Calm -- 29.83 in1010.2 mb 0.00 in0.0 mm 0.00 in0.0 mm 0.11 in2.8 mm
12:39 PM 48.8°F9.3°C 75.2°F24.0°C - Calm Calm -- 29.83 in1010.2 mb 0.00 in0.0 mm 0.00 in0.0 mm 0.11 in2.8 mm
12:44 PM 48.8°F9.3°C 75.2°F24.0°C - Calm Calm -- 29.83 in1010.2 mb 0.00 in0.0 mm 0.00 in0.0 mm 0.11 in2.8 mm
12:50 PM 49.0°F9.4°C 75.4°F24.1°C - Calm Calm -- 29.83 in1010.2 mb 0.00 in0.0 mm 0.00 in0.0 mm 0.11 in2.8 mm
12:54 PM 49.0°F9.4°C 75.4°F24.1°C - Calm Calm -- 29.83 in1010.2 mb 0.00 in0.0 mm 0.00 in0.0 mm 0.11 in2.8 mm
12:59 PM 49.1°F9.5°C 75.7°F24.3°C - Calm Calm -- 29.83 in1010.2 mb 0.00 in0.0 mm 0.00 in0.0 mm 0.11 in2.8 mm
01:04 PM 49.2°F9.6°C 75.8°F24.3°C - Calm Calm -- 29.83 in1010.2 mb 0.00 in0.0 mm 0.00 in0.0 mm 0.11 in2.8 mm
01:09 PM 49.5°F9.7°C 76.1°F24.5°C - Calm Calm -- 29.83 in1010.2 mb 0.00 in0.0 mm 0.00 in0.0 mm 0.11 in2.8 mm
01:14 PM 49.7°F9.8°C 76.4°F24.7°C - Calm Calm -- 29.83 in1010.2 mb 0.00 in0.0 mm 0.00 in0.0 mm 0.11 in2.8 mm
01:19 PM 49.8°F9.9°C 76.3°F24.6°C - Calm Calm -- 29.82 in1009.8 mb 0.00 in0.0 mm 0.00 in0.0 mm 0.11 in2.8 mm
01:24 PM 49.8°F9.9°C 76.3°F24.6°C - Calm Calm -- 29.82 in1009.8 mb 0.00 in0.0 mm 0.00 in0.0 mm 0.11 in2.8 mm
01:29 PM 49.7°F9.8°C 76.4°F24.7°C - Calm Calm -- 29.83 in1010.2 mb 0.00 in0.0 mm 0.00 in0.0 mm 0.11 in2.8 mm
01:34 PM 49.6°F9.8°C 76.2°F24.6°C - Calm Calm -- 29.82 in1009.8 mb 0.00 in0.0 mm 0.00 in0.0 mm 0.11 in2.8 mm
01:39 PM 49.5°F9.7°C 76.0°F24.4°C - Calm Calm -- 29.82 in1009.8 mb 0.00 in0.0 mm 0.00 in0.0 mm 0.11 in2.8 mm
01:44 PM 49.6°F9.8°C 76.1°F24.5°C - Calm Calm -- 29.82 in1009.8 mb 0.00 in0.0 mm 0.00 in0.0 mm 0.11 in2.8 mm
01:49 PM 49.7°F9.8°C 76.4°F24.7°C - Calm Calm -- 29.82 in1009.8 mb 0.00 in0.0 mm 0.00 in0.0 mm 0.11 in2.8 mm
01:54 PM 50.0°F10.0°C 76.7°F24.8°C - Calm Calm -- 29.82 in1009.8 mb 0.00 in0.0 mm 0.00 in0.0 mm 0.11 in2.8 mm
01:59 PM 50.1°F10.1°C 76.7°F24.8°C - Calm Calm -- 29.82 in1009.8 mb 0.00 in0.0 mm 0.00 in0.0 mm 0.11 in2.8 mm
02:04 PM 49.8°F9.9°C 76.5°F24.7°C - Calm Calm -- 29.83 in1010.2 mb 0.00 in0.0 mm 0.00 in0.0 mm 0.11 in2.8 mm
02:10 PM 52.1°F11.2°C 79.0°F26.1°C - 0.9 mph NW1.4 kmh NW 7.4 mph11.9 kmh 29.83 in1010.2 mb 0.00 in0.0 mm 0.00 in0.0 mm 0.11 in2.8 mm
02:14 PM 51.7°F10.9°C 78.6°F25.9°C - Calm Calm -- 29.82 in1009.8 mb 0.00 in0.0 mm 0.00 in0.0 mm 0.12 in3.0 mm
02:19 PM 48.6°F9.2°C 75.1°F23.9°C - Calm Calm -- 29.82 in1009.8 mb 0.00 in0.0 mm 0.00 in0.0 mm 0.12 in3.0 mm
02:25 PM 48.7°F9.3°C 75.2°F24.0°C - Calm Calm -- 29.82 in1009.8 mb 0.00 in0.0 mm 0.00 in0.0 mm 0.12 in3.0 mm
02:29 PM 48.8°F9.3°C 75.3°F24.1°C - Calm Calm -- 29.82 in1009.8 mb 0.00 in0.0 mm 0.00 in0.0 mm 0.12 in3.0 mm
02:34 PM 49.2°F9.6°C 75.8°F24.3°C - Calm Calm -- 29.83 in1010.2 mb 0.00 in0.0 mm 0.00 in0.0 mm 0.12 in3.0 mm
02:39 PM 49.3°F9.6°C 75.9°F24.4°C - Calm Calm -- 29.82 in1009.8 mb 0.00 in0.0 mm 0.00 in0.0 mm 0.12 in3.0 mm
02:44 PM 49.5°F9.7°C 76.1°F24.5°C - Calm Calm -- 29.82 in1009.8 mb 0.00 in0.0 mm 0.00 in0.0 mm 0.12 in3.0 mm
02:49 PM 49.3°F9.6°C 75.8°F24.3°C - Calm Calm -- 29.83 in1010.2 mb 0.00 in0.0 mm 0.00 in0.0 mm 0.12 in3.0 mm
02:54 PM 49.5°F9.7°C 76.0°F24.4°C - Calm Calm -- 29.83 in1010.2 mb 0.00 in0.0 mm 0.00 in0.0 mm 0.12 in3.0 mm
02:59 PM 49.8°F9.9°C 76.5°F24.7°C - Calm Calm -- 29.83 in1010.2 mb 0.00 in0.0 mm 0.00 in0.0 mm 0.12 in3.0 mm
03:04 PM 49.4°F9.7°C 76.0°F24.4°C - Calm Calm -- 29.83 in1010.2 mb 0.00 in0.0 mm 0.00 in0.0 mm 0.12 in3.0 mm
03:09 PM 48.9°F9.4°C 75.5°F24.2°C - Calm Calm -- 29.83 in1010.2 mb 0.00 in0.0 mm 0.00 in0.0 mm 0.12 in3.0 mm
03:14 PM 49.1°F9.5°C 75.6°F24.2°C - Calm Calm -- 29.83 in1010.2 mb 0.00 in0.0 mm 0.00 in0.0 mm 0.12 in3.0 mm
03:19 PM 49.3°F9.6°C 75.9°F24.4°C - Calm Calm -- 29.83 in1010.2 mb 0.00 in0.0 mm 0.00 in0.0 mm 0.12 in3.0 mm
03:24 PM 49.4°F9.7°C 76.0°F24.4°C - Calm Calm -- 29.83 in1010.2 mb 0.00 in0.0 mm 0.00 in0.0 mm 0.12 in3.0 mm
03:29 PM 49.7°F9.8°C 76.2°F24.6°C - Calm Calm -- 29.83 in1010.2 mb 0.00 in0.0 mm 0.00 in0.0 mm 0.12 in3.0 mm
03:34 PM 49.7°F9.8°C 76.4°F24.7°C - Calm Calm -- 29.83 in1010.2 mb 0.00 in0.0 mm 0.00 in0.0 mm 0.12 in3.0 mm
03:40 PM 49.5°F9.7°C 76.1°F24.5°C - Calm Calm -- 29.83 in1010.2 mb 0.00 in0.0 mm 0.00 in0.0 mm 0.12 in3.0 mm
03:44 PM 49.6°F9.8°C 76.2°F24.6°C - Calm Calm -- 29.83 in1010.2 mb 0.00 in0.0 mm 0.00 in0.0 mm 0.12 in3.0 mm
03:49 PM 49.6°F9.8°C 76.1°F24.5°C - Calm Calm -- 29.83 in1010.2 mb 0.00 in0.0 mm 0.00 in0.0 mm 0.12 in3.0 mm
03:54 PM 49.7°F9.8°C 76.4°F24.7°C - Calm Calm -- 29.83 in1010.2 mb 0.00 in0.0 mm 0.00 in0.0 mm 0.12 in3.0 mm
03:59 PM 49.7°F9.8°C 76.4°F24.7°C - Calm Calm -- 29.83 in1010.2 mb 0.00 in0.0 mm 0.00 in0.0 mm 0.12 in3.0 mm
04:04 PM 49.6°F9.8°C 76.2°F24.6°C - Calm Calm -- 29.83 in1010.2 mb 0.00 in0.0 mm 0.00 in0.0 mm 0.12 in3.0 mm
04:09 PM 49.4°F9.7°C 76.0°F24.4°C - Calm Calm -- 29.83 in1010.2 mb 0.00 in0.0 mm 0.00 in0.0 mm 0.12 in3.0 mm
04:14 PM 49.3°F9.6°C 75.9°F24.4°C - Calm Calm -- 29.83 in1010.2 mb 0.00 in0.0 mm 0.00 in0.0 mm 0.12 in3.0 mm
04:19 PM 49.0°F9.4°C 75.6°F24.2°C - Calm Calm -- 29.82 in1009.8 mb 0.00 in0.0 mm 0.00 in0.0 mm 0.12 in3.0 mm
04:24 PM 48.4°F9.1°C 74.8°F23.8°C - Calm Calm -- 29.83 in1010.2 mb 0.00 in0.0 mm 0.00 in0.0 mm 0.12 in3.0 mm
04:29 PM 47.8°F8.8°C 74.2°F23.4°C - Calm Calm -- 29.83 in1010.2 mb 0.00 in0.0 mm 0.00 in0.0 mm 0.12 in3.0 mm
04:34 PM 47.9°F8.8°C 74.3°F23.5°C - Calm Calm -- 29.83 in1010.2 mb 0.00 in0.0 mm 0.00 in0.0 mm 0.12 in3.0 mm
04:39 PM 48.2°F9.0°C 74.7°F23.7°C - Calm Calm -- 29.83 in1010.2 mb 0.00 in0.0 mm 0.00 in0.0 mm 0.12 in3.0 mm
04:44 PM 48.1°F8.9°C 74.6°F23.7°C - Calm Calm -- 29.83 in1010.2 mb 0.00 in0.0 mm 0.00 in0.0 mm 0.12 in3.0 mm
04:49 PM 48.1°F8.9°C 74.6°F23.7°C - Calm Calm -- 29.83 in1010.2 mb 0.00 in0.0 mm 0.00 in0.0 mm 0.12 in3.0 mm
04:54 PM 48.2°F9.0°C 74.7°F23.7°C - Calm Calm -- 29.83 in1010.2 mb 0.00 in0.0 mm 0.00 in0.0 mm 0.12 in3.0 mm
04:59 PM 48.1°F8.9°C 74.6°F23.7°C - Calm Calm -- 29.83 in1010.2 mb 0.00 in0.0 mm 0.00 in0.0 mm 0.12 in3.0 mm
05:04 PM 47.8°F8.8°C 74.1°F23.4°C - Calm Calm -- 29.83 in1010.2 mb 0.00 in0.0 mm 0.00 in0.0 mm 0.12 in3.0 mm
05:09 PM 47.7°F8.7°C 74.0°F23.3°C - Calm Calm -- 29.84 in1010.5 mb 0.00 in0.0 mm 0.00 in0.0 mm 0.12 in3.0 mm
05:14 PM 47.5°F8.6°C 73.8°F23.2°C - Calm Calm -- 29.84 in1010.5 mb 0.00 in0.0 mm 0.00 in0.0 mm 0.12 in3.0 mm
05:19 PM 47.3°F8.5°C 73.7°F23.2°C - Calm Calm -- 29.84 in1010.5 mb 0.00 in0.0 mm 0.00 in0.0 mm 0.12 in3.0 mm
05:24 PM 47.3°F8.5°C 73.5°F23.1°C - Calm Calm -- 29.84 in1010.5 mb 0.00 in0.0 mm 0.00 in0.0 mm 0.12 in3.0 mm
05:29 PM 47.3°F8.5°C 73.5°F23.1°C - Calm Calm -- 29.84 in1010.5 mb 0.00 in0.0 mm 0.00 in0.0 mm 0.12 in3.0 mm
05:34 PM 47.3°F8.5°C 73.7°F23.2°C - Calm Calm -- 29.84 in1010.5 mb 0.00 in0.0 mm 0.00 in0.0 mm 0.12 in3.0 mm
05:39 PM 47.5°F8.6°C 73.8°F23.2°C - Calm Calm -- 29.84 in1010.5 mb 0.00 in0.0 mm 0.00 in0.0 mm 0.12 in3.0 mm
05:44 PM 47.4°F8.6°C 73.7°F23.2°C - Calm Calm -- 29.84 in1010.5 mb 0.00 in0.0 mm 0.00 in0.0 mm 0.12 in3.0 mm
05:49 PM 47.3°F8.5°C 73.5°F23.1°C - Calm Calm -- 29.84 in1010.5 mb 0.00 in0.0 mm 0.00 in0.0 mm 0.12 in3.0 mm
05:54 PM 47.3°F8.5°C 73.5°F23.1°C - Calm Calm -- 29.85 in1010.8 mb 0.00 in0.0 mm 0.00 in0.0 mm 0.12 in3.0 mm
05:59 PM 47.4°F8.6°C 73.8°F23.2°C - Calm Calm -- 29.84 in1010.5 mb 0.00 in0.0 mm 0.00 in0.0 mm 0.13 in3.3 mm
06:04 PM 46.9°F8.3°C 73.2°F22.9°C - Calm Calm -- 29.85 in1010.8 mb 0.00 in0.0 mm 0.00 in0.0 mm 0.13 in3.3 mm
06:09 PM 46.6°F8.1°C 72.8°F22.7°C - Calm Calm -- 29.85 in1010.8 mb 0.00 in0.0 mm 0.00 in0.0 mm 0.13 in3.3 mm
06:15 PM 46.7°F8.2°C 73.0°F22.8°C - Calm Calm -- 29.85 in1010.8 mb 0.00 in0.0 mm 0.00 in0.0 mm 0.13 in3.3 mm
06:19 PM 46.9°F8.3°C 73.2°F22.9°C - Calm Calm -- 29.85 in1010.8 mb 0.00 in0.0 mm 0.00 in0.0 mm 0.13 in3.3 mm
06:24 PM 47.2°F8.4°C 73.4°F23.0°C - Calm Calm -- 29.85 in1010.8 mb 0.00 in0.0 mm 0.00 in0.0 mm 0.13 in3.3 mm
06:29 PM 47.1°F8.4°C 73.3°F22.9°C - Calm Calm -- 29.85 in1010.8 mb 0.00 in0.0 mm 0.00 in0.0 mm 0.13 in3.3 mm
06:34 PM 47.1°F8.4°C 73.3°F22.9°C - Calm Calm -- 29.85 in1010.8 mb 0.00 in0.0 mm 0.00 in0.0 mm 0.13 in3.3 mm
06:39 PM 47.0°F8.3°C 73.3°F22.9°C - Calm Calm -- 29.85 in1010.8 mb 0.00 in0.0 mm 0.00 in0.0 mm 0.13 in3.3 mm
06:44 PM 46.5°F8.1°C 72.6°F22.6°C - Calm Calm -- 29.86 in1011.2 mb 0.00 in0.0 mm 0.00 in0.0 mm 0.13 in3.3 mm
06:49 PM 46.2°F7.9°C 72.3°F22.4°C - Calm Calm -- 29.86 in1011.2 mb 0.00 in0.0 mm 0.00 in0.0 mm 0.13 in3.3 mm
06:54 PM 46.3°F7.9°C 72.5°F22.5°C - Calm Calm -- 29.86 in1011.2 mb 0.00 in0.0 mm 0.00 in0.0 mm 0.13 in3.3 mm
06:59 PM 46.5°F8.1°C 72.8°F22.7°C - Calm Calm -- 29.86 in1011.2 mb 0.00 in0.0 mm 0.00 in0.0 mm 0.13 in3.3 mm
07:04 PM 46.5°F8.1°C 72.8°F22.7°C - Calm Calm -- 29.86 in1011.2 mb 0.00 in0.0 mm 0.00 in0.0 mm 0.13 in3.3 mm
07:09 PM 46.6°F8.1°C 72.9°F22.7°C - Calm Calm -- 29.86 in1011.2 mb 0.00 in0.0 mm 0.00 in0.0 mm 0.13 in3.3 mm
07:15 PM 46.7°F8.2°C 72.9°F22.7°C - Calm Calm -- 29.86 in1011.2 mb 0.00 in0.0 mm 0.00 in0.0 mm 0.13 in3.3 mm
07:19 PM 46.8°F8.2°C 73.1°F22.8°C - Calm Calm -- 29.86 in1011.2 mb 0.00 in0.0 mm 0.00 in0.0 mm 0.13 in3.3 mm
07:24 PM 47.1°F8.4°C 73.3°F22.9°C - Calm Calm -- 29.86 in1011.2 mb 0.00 in0.0 mm 0.00 in0.0 mm 0.13 in3.3 mm
07:30 PM 47.2°F8.4°C 73.5°F23.1°C - Calm Calm -- 29.86 in1011.2 mb 0.00 in0.0 mm 0.00 in0.0 mm 0.13 in3.3 mm
07:34 PM 47.3°F8.5°C 73.7°F23.2°C - Calm Calm -- 29.87 in1011.5 mb 0.00 in0.0 mm 0.00 in0.0 mm 0.13 in3.3 mm
07:39 PM 47.2°F8.4°C 73.5°F23.1°C - Calm Calm -- 29.87 in1011.5 mb 0.00 in0.0 mm 0.00 in0.0 mm 0.13 in3.3 mm
07:44 PM 46.8°F8.2°C 73.1°F22.8°C - Calm Calm -- 29.87 in1011.5 mb 0.00 in0.0 mm 0.00 in0.0 mm 0.13 in3.3 mm
07:49 PM 46.6°F8.1°C 72.8°F22.7°C - Calm Calm -- 29.87 in1011.5 mb 0.00 in0.0 mm 0.00 in0.0 mm 0.13 in3.3 mm
07:54 PM 46.5°F8.1°C 72.6°F22.6°C - Calm Calm -- 29.87 in1011.5 mb 0.00 in0.0 mm 0.00 in0.0 mm 0.13 in3.3 mm
07:59 PM 46.6°F8.1°C 72.9°F22.7°C - Calm Calm -- 29.87 in1011.5 mb 0.00 in0.0 mm 0.00 in0.0 mm 0.13 in3.3 mm
08:04 PM 47.1°F8.4°C 73.3°F22.9°C - Calm Calm -- 29.87 in1011.5 mb 0.00 in0.0 mm 0.00 in0.0 mm 0.13 in3.3 mm
08:09 PM 47.1°F8.4°C 73.3°F22.9°C - Calm Calm -- 29.87 in1011.5 mb 0.00 in0.0 mm 0.00 in0.0 mm 0.13 in3.3 mm
08:14 PM 47.0°F8.3°C 73.2°F22.9°C - Calm Calm -- 29.87 in1011.5 mb 0.00 in0.0 mm 0.00 in0.0 mm 0.13 in3.3 mm
08:19 PM 47.0°F8.3°C 73.3°F22.9°C - Calm Calm -- 29.87 in1011.5 mb 0.00 in0.0 mm 0.00 in0.0 mm 0.13 in3.3 mm
08:24 PM 47.1°F8.4°C 73.4°F23.0°C - Calm Calm -- 29.87 in1011.5 mb 0.00 in0.0 mm 0.00 in0.0 mm 0.13 in3.3 mm
08:29 PM 47.2°F8.4°C 73.5°F23.1°C - Calm Calm -- 29.87 in1011.5 mb 0.00 in0.0 mm 0.00 in0.0 mm 0.13 in3.3 mm
08:34 PM 47.1°F8.4°C 73.3°F22.9°C - Calm Calm -- 29.87 in1011.5 mb 0.00 in0.0 mm 0.00 in0.0 mm 0.13 in3.3 mm
08:39 PM 46.8°F8.2°C 73.0°F22.8°C - Calm Calm -- 29.87 in1011.5 mb 0.00 in0.0 mm 0.00 in0.0 mm 0.13 in3.3 mm
08:44 PM 46.5°F8.1°C 72.8°F22.7°C - Calm Calm -- 29.88 in1011.9 mb 0.00 in0.0 mm 0.00 in0.0 mm 0.13 in3.3 mm
08:49 PM 46.2°F7.9°C 72.4°F22.4°C - Calm Calm -- 29.88 in1011.9 mb 0.00 in0.0 mm 0.00 in0.0 mm 0.13 in3.3 mm
08:54 PM 45.8°F7.7°C 72.0°F22.2°C - Calm Calm -- 29.88 in1011.9 mb 0.00 in0.0 mm 0.00 in0.0 mm 0.13 in3.3 mm
08:59 PM 45.7°F7.6°C 71.9°F22.2°C - Calm Calm -- 29.88 in1011.9 mb 0.00 in0.0 mm 0.00 in0.0 mm 0.13 in3.3 mm
09:04 PM 45.7°F7.6°C 71.9°F22.2°C - Calm Calm -- 29.88 in1011.9 mb 0.00 in0.0 mm 0.00 in0.0 mm 0.13 in3.3 mm
09:09 PM 45.7°F7.6°C 71.9°F22.2°C - Calm Calm -- 29.88 in1011.9 mb 0.00 in0.0 mm 0.00 in0.0 mm 0.13 in3.3 mm
09:14 PM 45.5°F7.5°C 71.6°F22.0°C - Calm Calm -- 29.88 in1011.9 mb 0.00 in0.0 mm 0.00 in0.0 mm 0.13 in3.3 mm
09:19 PM 45.5°F7.5°C 71.6°F22.0°C - Calm Calm -- 29.88 in1011.9 mb 0.00 in0.0 mm 0.00 in0.0 mm 0.13 in3.3 mm
09:24 PM 45.5°F7.5°C 71.6°F22.0°C - Calm Calm -- 29.88 in1011.9 mb 0.00 in0.0 mm 0.00 in0.0 mm 0.13 in3.3 mm
09:29 PM 45.3°F7.4°C 71.4°F21.9°C - Calm Calm -- 29.88 in1011.9 mb 0.00 in0.0 mm 0.00 in0.0 mm 0.13 in3.3 mm
09:35 PM 45.5°F7.5°C 71.6°F22.0°C - Calm Calm -- 29.88 in1011.9 mb 0.00 in0.0 mm 0.00 in0.0 mm 0.13 in3.3 mm
09:39 PM 45.6°F7.6°C 71.8°F22.1°C - Calm Calm -- 29.88 in1011.9 mb 0.00 in0.0 mm 0.00 in0.0 mm 0.13 in3.3 mm
09:44 PM 46.2°F7.9°C 72.3°F22.4°C - Calm Calm -- 29.88 in1011.9 mb 0.00 in0.0 mm 0.00 in0.0 mm 0.13 in3.3 mm
09:49 PM 46.8°F8.2°C 73.1°F22.8°C - Calm Calm -- 29.88 in1011.9 mb 0.00 in0.0 mm 0.00 in0.0 mm 0.13 in3.3 mm
09:54 PM 46.9°F8.3°C 73.1°F22.8°C - Calm Calm -- 29.88 in1011.9 mb 0.00 in0.0 mm 0.00 in0.0 mm 0.13 in3.3 mm
09:59 PM 46.0°F7.8°C 72.2°F22.3°C - Calm Calm -- 29.88 in1011.9 mb 0.00 in0.0 mm 0.00 in0.0 mm 0.13 in3.3 mm
10:04 PM 44.9°F7.2°C 71.0°F21.7°C - Calm Calm -- 29.88 in1011.9 mb 0.00 in0.0 mm 0.00 in0.0 mm 0.13 in3.3 mm
10:09 PM 44.6°F7.0°C 70.6°F21.4°C - Calm Calm -- 29.88 in1011.9 mb 0.00 in0.0 mm 0.00 in0.0 mm 0.13 in3.3 mm
10:14 PM 44.6°F7.0°C 70.6°F21.4°C - Calm Calm -- 29.88 in1011.9 mb 0.00 in0.0 mm 0.00 in0.0 mm 0.13 in3.3 mm
10:19 PM 44.5°F6.9°C 70.4°F21.3°C - Calm Calm -- 29.88 in1011.9 mb 0.00 in0.0 mm 0.00 in0.0 mm 0.13 in3.3 mm
10:24 PM 44.6°F7.0°C 70.6°F21.4°C - Calm Calm -- 29.88 in1011.9 mb 0.00 in0.0 mm 0.00 in0.0 mm 0.13 in3.3 mm
10:29 PM 44.5°F6.9°C 70.4°F21.3°C - Calm Calm -- 29.89 in1012.2 mb 0.00 in0.0 mm 0.00 in0.0 mm 0.13 in3.3 mm
10:34 PM 44.4°F6.9°C 70.3°F21.3°C - Calm Calm -- 29.89 in1012.2 mb 0.00 in0.0 mm 0.00 in0.0 mm 0.13 in3.3 mm
10:39 PM 44.1°F6.7°C 70.0°F21.1°C - Calm Calm -- 29.89 in1012.2 mb 0.00 in0.0 mm 0.00 in0.0 mm 0.13 in3.3 mm
10:44 PM 44.0°F6.7°C 69.8°F21.0°C - Calm Calm -- 29.88 in1011.9 mb 0.00 in0.0 mm 0.00 in0.0 mm 0.13 in3.3 mm
10:49 PM 44.0°F6.7°C 70.0°F21.1°C - Calm Calm -- 29.89 in1012.2 mb 0.00 in0.0 mm 0.00 in0.0 mm 0.13 in3.3 mm
10:54 PM 44.0°F6.7°C 70.0°F21.1°C - Calm Calm -- 29.88 in1011.9 mb 0.00 in0.0 mm 0.00 in0.0 mm 0.13 in3.3 mm
10:59 PM 44.0°F6.7°C 70.0°F21.1°C - Calm Calm -- 29.88 in1011.9 mb 0.00 in0.0 mm 0.00 in0.0 mm 0.13 in3.3 mm
11:04 PM 43.8°F6.6°C 69.7°F20.9°C - Calm Calm -- 29.88 in1011.9 mb 0.00 in0.0 mm 0.00 in0.0 mm 0.13 in3.3 mm
11:09 PM 43.5°F6.4°C 69.3°F20.7°C - Calm Calm -- 29.88 in1011.9 mb 0.00 in0.0 mm 0.00 in0.0 mm 0.13 in3.3 mm
11:14 PM 43.3°F6.3°C 69.2°F20.7°C - Calm Calm -- 29.88 in1011.9 mb 0.00 in0.0 mm 0.00 in0.0 mm 0.13 in3.3 mm
11:19 PM 43.5°F6.4°C 69.4°F20.8°C - Calm Calm -- 29.88 in1011.9 mb 0.00 in0.0 mm 0.00 in0.0 mm 0.13 in3.3 mm
11:24 PM 44.5°F6.9°C 70.5°F21.4°C - Calm Calm -- 29.88 in1011.9 mb 0.00 in0.0 mm 0.00 in0.0 mm 0.13 in3.3 mm
11:29 PM 45.6°F7.6°C 71.6°F22.0°C - Calm Calm -- 29.88 in1011.9 mb 0.00 in0.0 mm 0.00 in0.0 mm 0.13 in3.3 mm
11:34 PM 45.9°F7.7°C 72.1°F22.3°C - Calm Calm -- 29.88 in1011.9 mb 0.00 in0.0 mm 0.00 in0.0 mm 0.13 in3.3 mm
11:39 PM 46.5°F8.1°C 72.8°F22.7°C - Calm Calm -- 29.87 in1011.5 mb 0.00 in0.0 mm 0.00 in0.0 mm 0.13 in3.3 mm
11:44 PM 46.8°F8.2°C 73.1°F22.8°C - Calm Calm -- 29.87 in1011.5 mb 0.00 in0.0 mm 0.00 in0.0 mm 0.13 in3.3 mm
11:49 PM 46.8°F8.2°C 73.1°F22.8°C - Calm Calm -- 29.87 in1011.5 mb 0.00 in0.0 mm 0.00 in0.0 mm 0.13 in3.3 mm
11:54 PM 46.7°F8.2°C 72.9°F22.7°C - Calm Calm -- 29.87 in1011.5 mb 0.00 in0.0 mm 0.00 in0.0 mm 0.13 in3.3 mm